Terminal Aerodrome Forecast
Issued by NWS

Home | Current Version | Previous Version | Text Only | Print | Product List | Glossary On
Versions: 1 2 3 4 5 6 7 8 9 10 11 12 13 14 15 16 17 18 19 20 21 22 23
000
FTUS41 KILN 021700
TAFLCK
TAF
KLCK 021736Z 0218/0318 24012G18KT P6SM VCSH BKN035
      TEMPO 0218/0220 BKN025
     FM022300 27006KT P6SM BKN035
     FM030600 VRB03KT P6SM SCT250
     FM030800 VRB03KT 4SM BR SKC
     FM031000 VRB03KT 2SM BR SKC
     FM031400 VRB04KT P6SM SCT025=

USA.gov is the U.S. government's official web portal to all federal, state and local government web resources and services.